Nearby METAR Reports

 

KLHW - Ft Stewart/Wrigh, Georgia, USA
Distance from station: NW 5mi, 8km
Updated: Thu, 19-Oct-2017 7:56am EDT
Clear
Clear
 Wind from N
Wind: N 7 mph , 11 km/h
Temperature: 57°F , 14°C
Dew Point: 52°F , 11°C
Humidity: 82%
Barometer: 30.21 inHg , 1023 hPa
Clouds: Clear
Visibility: 10 miles , 16 km
2017/10/19 11:56 KLHW 191156Z AUTO 36006KT 10SM CLR 14/11 A3021 RMK AO2 SLP233 T01420112 10151 20141 52011 $
KSVN - Savannah/Hunter, Georgia, USA
Distance from station: NE 24mi, 39km
Updated: Thu, 19-Oct-2017 7:56am EDT
Clear
Clear
 Wind from N
Wind: N 8 mph , 13 km/h
Temperature: 59°F , 15°C
Dew Point: 54°F , 12°C
Humidity: 82%
Barometer: 30.20 inHg , 1022.7 hPa
Clouds: Clear
Visibility: 10 miles , 16 km
2017/10/19 11:56 KSVN 191156Z AUTO 36007KT 10SM CLR 15/12 A3020 RMK AO2 SLP230 T01510124 10166 20149 53009 $
 
KSAV - Savannah, Georgia, USA
Distance from station: NE 27mi, 43km
Updated: Thu, 19-Oct-2017 7:53am EDT
Few Clouds
Few Clouds
 Wind from N
Wind: N 5 mph , 7 km/h
Temperature: 55°F , 13°C
Dew Point: 54°F , 12°C
Humidity: 94%
Barometer: 30.23 inHg , 1023.7 hPa
Clouds: Few Clouds
Visibility: 10 miles , 16 km
Cloud details: Few Clouds 2000 ft
2017/10/19 11:53 KSAV 191153Z 35004KT 10SM FEW020 13/12 A3023 RMK AO2 SLP237 T01330122 10161 20133 53010 $
KJES - Jesup/Wayne Cty, Georgia, USA
Distance from station: SW 30mi, 48km
Updated: Thu, 19-Oct-2017 8:20am EDT
Clear
Clear
 Wind from calm
Wind: Calm
Temperature: 61°F , 16°C
Dew Point: 54°F , 12°C
Humidity: 77%
Barometer: 30.22 inHg , 1023.4 hPa
Clouds: Clear
Visibility: 10 miles , 16 km
2017/10/19 12:20 KJES 191220Z AUTO 00000KT 10SM CLR 16/12 A3022 RMK AO2
 
KCWV - Claxton/Evans Co, Georgia, USA
Distance from station: NW 34mi, 55km
Updated: Thu, 19-Oct-2017 8:35am EDT
Clear
Clear
 Wind from NNE
Wind: NNE 5 mph , 7 km/h
Temperature: 57°F , 14°C
Dew Point: 54°F , 12°C
Humidity: 88%
Barometer: 30.24 inHg , 1024 hPa
Clouds: Clear
Visibility: 10 miles , 16 km
2017/10/19 12:35 KCWV 191235Z AUTO 02004KT 10SM CLR 14/12 A3024 RMK AO2 T01390117
KBQK - Brunswick/Glynco, Georgia, USA
Distance from station: S 40mi, 64km
Updated: Thu, 19-Oct-2017 8:35am EDT
Clear
Clear
 Wind from N
Wind: N 6 mph , 9 km/h
Temperature: 63°F , 17°C
Dew Point: 59°F , 15°C
Humidity: 88%
Barometer: 30.20 inHg , 1022.7 hPa
Clouds: Clear
Visibility: 10 miles , 16 km
2017/10/19 12:35 KBQK 191235Z AUTO 36005KT 10SM CLR 17/15 A3020 RMK AO2
 
KSSI - Brunswick, Georgia, USA
Distance from station: S 47mi, 76km
Updated: Thu, 19-Oct-2017 7:53am EDT
Overcast
Overcast
 Wind from N
Wind: N 8 mph , 13 km/h
Temperature: 66°F , 19°C
Dew Point: 63°F , 17°C
Humidity: 88%
Barometer: 30.17 inHg , 1021.7 hPa
Clouds: Overcast
Visibility: 10 miles , 16 km
Cloud details: Overcast 1900 ft
2017/10/19 11:53 KSSI 191153Z AUTO 35007KT 10SM OVC019 19/17 A3017 RMK AO2 SLP217 T01890172 10200 20183 51006
KTBR - Statesboro, Georgia, USA
Distance from station: NNW 48mi, 77km
Updated: Thu, 19-Oct-2017 8:35am EDT
Clear
Clear
 Wind from NE
Wind: NE 3 mph , 6 km/h
Temperature: 55°F , 13°C
Dew Point: 46°F , 8°C
Humidity: 72%
Barometer: 30.25 inHg , 1024.4 hPa
Clouds: Clear
Visibility: 10 miles , 16 km
2017/10/19 12:35 KTBR 191235Z AUTO 05003KT 10SM CLR 13/08 A3025 RMK AO2 T01270080